createdAt,value
2023-09-01T00:04:25.905Z,47.92
2023-09-01T00:09:47.813Z,47.70
2023-09-01T00:15:10.068Z,47.77
2023-09-01T00:20:36.140Z,47.90
2023-09-01T00:25:59.722Z,47.76
2023-09-01T00:31:22.367Z,48.04
2023-09-01T00:36:44.913Z,47.72
2023-09-01T00:42:06.946Z,48.21
2023-09-01T00:47:29.052Z,47.87
2023-09-01T00:52:50.945Z,47.93
2023-09-01T00:58:13.055Z,48.01
2023-09-01T01:03:35.849Z,47.67
2023-09-01T01:09:10.630Z,47.76
2023-09-01T01:14:46.611Z,48.15
2023-09-01T01:20:28.737Z,48.08
2023-09-01T01:25:54.408Z,48.01
2023-09-01T01:31:16.510Z,47.65
2023-09-01T01:37:08.330Z,48.03
2023-09-01T01:42:32.784Z,47.94
2023-09-01T01:47:55.116Z,47.75
2023-09-01T01:53:17.221Z,48.08
2023-09-01T01:58:41.089Z,48.03
2023-09-01T02:04:03.001Z,47.70
2023-09-01T02:09:24.871Z,48.21
2023-09-01T02:14:46.711Z,48.10
2023-09-01T02:20:20.793Z,47.80
2023-09-01T02:25:42.673Z,48.23
2023-09-01T02:31:10.854Z,48.17
2023-09-01T02:36:34.914Z,48.08
2023-09-01T02:41:56.962Z,47.75
2023-09-01T02:47:18.825Z,47.74
2023-09-01T02:52:40.816Z,47.69
2023-09-01T02:58:02.678Z,48.04
2023-09-01T03:03:25.502Z,48.07
2023-09-01T03:08:47.470Z,47.72
2023-09-01T03:14:09.284Z,47.87
2023-09-01T03:19:31.171Z,47.87
2023-09-01T03:24:54.646Z,47.83
2023-09-01T03:30:17.176Z,47.73
2023-09-01T03:35:39.376Z,48.21
2023-09-01T03:41:05.989Z,47.86
2023-09-01T03:46:27.878Z,48.01
2023-09-01T03:51:49.919Z,48.07
2023-09-01T03:57:11.714Z,47.81
2023-09-01T04:02:33.570Z,47.81
2023-09-01T04:07:55.573Z,48.05
2023-09-01T04:13:17.509Z,47.83
2023-09-01T04:18:39.846Z,47.86
2023-09-01T04:24:01.810Z,48.25
2023-09-01T04:29:23.800Z,48.27
2023-09-01T04:34:45.682Z,48.01
2023-09-01T04:40:09.988Z,48.16
2023-09-01T04:45:31.959Z,48.03
2023-09-01T04:50:54.492Z,48.10
2023-09-01T04:56:16.663Z,47.79
2023-09-01T05:01:38.605Z,48.12
2023-09-01T05:07:00.832Z,48.32
2023-09-01T05:12:22.907Z,47.87
2023-09-01T05:17:45.095Z,48.06
2023-09-01T05:23:07.233Z,47.86
2023-09-01T05:28:29.356Z,48.41
2023-09-01T05:33:51.373Z,47.98
2023-09-01T05:39:13.642Z,47.96
2023-09-01T05:44:37.137Z,48.12
2023-09-01T05:49:59.090Z,48.06
2023-09-01T05:55:20.991Z,47.93
2023-09-01T06:00:43.170Z,47.99
2023-09-01T06:06:05.116Z,47.89
2023-09-01T06:11:27.961Z,47.91
2023-09-01T06:16:52.538Z,48.20
2023-09-01T06:22:15.270Z,48.15
2023-09-01T06:27:38.767Z,47.92
2023-09-01T06:33:00.884Z,48.31
2023-09-01T06:38:22.799Z,47.92
2023-09-01T06:43:44.775Z,48.22
2023-09-01T06:49:06.646Z,48.23
2023-09-01T06:54:28.695Z,48.09
2023-09-01T06:59:50.659Z,48.10
2023-09-01T07:05:12.570Z,48.44
2023-09-01T07:10:34.426Z,48.57
2023-09-01T07:15:56.381Z,48.09
2023-09-01T07:21:18.315Z,48.35
2023-09-01T07:26:40.399Z,48.45
2023-09-01T07:32:02.466Z,48.32
2023-09-01T07:37:24.469Z,48.57
2023-09-01T07:42:46.371Z,48.07
2023-09-01T07:48:20.642Z,48.16
2023-09-01T07:53:43.853Z,48.29
2023-09-01T07:59:05.948Z,48.58
2023-09-01T08:04:27.973Z,48.30
2023-09-01T08:09:50.064Z,48.58
2023-09-01T08:15:12.910Z,48.11
2023-09-01T08:20:34.881Z,48.44
2023-09-01T08:25:56.899Z,48.63
2023-09-01T08:31:18.975Z,48.61
2023-09-01T08:36:40.886Z,48.49
2023-09-01T08:42:04.201Z,48.21
2023-09-01T08:47:27.618Z,48.48
2023-09-01T08:52:50.116Z,48.30
2023-09-01T08:58:12.067Z,48.52
2023-09-01T09:03:34.691Z,48.50
2023-09-01T09:09:20.362Z,48.58
2023-09-01T09:14:57.252Z,48.53
2023-09-01T09:20:21.303Z,48.51
2023-09-01T09:25:43.193Z,48.41
2023-09-01T09:31:05.119Z,48.90
2023-09-01T09:36:35.071Z,48.52
2023-09-01T09:41:58.482Z,48.65
2023-09-01T09:47:20.605Z,48.55
2023-09-01T09:52:44.320Z,48.58
2023-09-01T09:58:08.793Z,48.60
2023-09-01T10:03:31.299Z,48.90
2023-09-01T10:08:55.361Z,48.55
2023-09-01T10:14:17.805Z,48.80
2023-09-01T10:19:40.170Z,48.84
2023-09-01T10:25:16.927Z,48.44
2023-09-01T10:30:47.420Z,48.69
2023-09-01T10:36:14.912Z,48.87
2023-09-01T10:41:54.309Z,48.93
2023-09-01T10:47:36.288Z,48.61
2023-09-01T10:53:33.255Z,48.58
2023-09-01T10:59:03.009Z,48.95
2023-09-01T11:04:29.261Z,48.76
2023-09-01T11:09:51.886Z,49.02
2023-09-01T11:15:13.780Z,48.96
2023-09-01T11:20:35.843Z,48.98
2023-09-01T11:26:01.529Z,49.18
2023-09-01T11:31:23.824Z,48.92
2023-09-01T11:36:51.462Z,48.91
2023-09-01T11:42:13.397Z,49.06
2023-09-01T11:47:35.937Z,48.85
2023-09-01T11:52:58.530Z,49.57
2023-09-01T11:58:20.475Z,49.74
2023-09-01T12:03:49.822Z,49.30
2023-09-01T12:09:17.339Z,49.63
2023-09-01T12:14:39.412Z,49.59
2023-09-01T12:20:03.082Z,49.92
2023-09-01T12:25:24.979Z,49.31
2023-09-01T12:30:46.854Z,50.00
2023-09-01T12:36:08.885Z,49.93
2023-09-01T12:41:31.062Z,49.83
2023-09-01T12:46:52.914Z,49.68
2023-09-01T12:52:17.656Z,49.40
2023-09-01T12:57:39.930Z,49.48
2023-09-01T13:03:02.128Z,49.51
2023-09-01T13:08:24.211Z,49.64
2023-09-01T13:13:46.170Z,49.70
2023-09-01T13:19:08.090Z,49.76
2023-09-01T13:24:30.207Z,50.10
2023-09-01T13:29:52.943Z,49.98
2023-09-01T13:35:14.882Z,49.53
2023-09-01T13:40:38.792Z,49.67
2023-09-01T13:46:23.481Z,49.77
2023-09-01T13:51:45.398Z,50.07
2023-09-01T13:57:07.422Z,49.99
2023-09-01T14:02:29.523Z,50.18
2023-09-01T14:07:51.651Z,50.25
2023-09-01T14:13:13.952Z,50.11
2023-09-01T14:18:36.124Z,50.09
2023-09-01T14:23:57.998Z,50.05
2023-09-01T14:29:20.445Z,50.35
2023-09-01T14:34:42.367Z,50.09
2023-09-01T14:40:04.731Z,50.29
2023-09-01T14:45:26.658Z,50.11
2023-09-01T14:50:49.864Z,49.75
2023-09-01T14:56:13.653Z,50.11
2023-09-01T15:01:37.719Z,50.04
2023-09-01T15:06:59.596Z,50.14
2023-09-01T15:12:21.640Z,50.19
2023-09-01T15:17:43.882Z,50.23
2023-09-01T15:23:09.137Z,50.23
2023-09-01T15:28:31.174Z,50.22
2023-09-01T15:33:53.352Z,50.49
2023-09-01T15:39:16.628Z,50.04
2023-09-01T15:44:38.562Z,50.32
2023-09-01T15:50:00.628Z,50.39
2023-09-01T15:55:22.492Z,50.68
2023-09-01T16:00:45.967Z,51.08
2023-09-01T16:06:07.954Z,51.53
2023-09-01T16:11:30.367Z,51.68
2023-09-01T16:16:54.870Z,51.80
2023-09-01T16:22:18.747Z,51.60
2023-09-01T16:27:44.341Z,51.94
2023-09-01T16:33:07.791Z,51.34
2023-09-01T16:38:30.737Z,51.37
2023-09-01T16:43:53.805Z,51.33
2023-09-01T16:49:15.732Z,51.60
2023-09-01T16:54:37.597Z,51.62
2023-09-01T16:59:59.517Z,51.41
2023-09-01T17:05:21.457Z,51.36
2023-09-01T17:10:43.396Z,51.15
2023-09-01T17:16:05.319Z,51.45
2023-09-01T17:21:27.135Z,51.61
2023-09-01T17:26:49.043Z,51.54
2023-09-01T17:32:11.085Z,51.53
2023-09-01T17:37:33.035Z,51.52
2023-09-01T17:42:54.931Z,51.03
2023-09-01T17:48:16.878Z,51.51
2023-09-01T17:53:38.797Z,51.45
2023-09-01T17:59:00.745Z,51.33
2023-09-01T18:04:23.379Z,51.27
2023-09-01T18:09:45.227Z,51.08
2023-09-01T18:15:07.624Z,50.83
2023-09-01T18:20:33.141Z,51.09
2023-09-01T18:25:54.987Z,51.37
2023-09-01T18:31:24.810Z,50.86
2023-09-01T18:36:46.736Z,51.14
2023-09-01T18:42:35.161Z,51.32
2023-09-01T18:47:57.494Z,51.43
2023-09-01T18:53:19.919Z,50.85
2023-09-01T18:58:47.747Z,51.08
2023-09-01T19:04:09.874Z,50.81
2023-09-01T19:09:31.702Z,51.04
2023-09-01T19:14:54.357Z,50.86
2023-09-01T19:20:26.159Z,50.82
2023-09-01T19:25:48.085Z,51.00
2023-09-01T19:31:10.679Z,51.02
2023-09-01T19:36:33.950Z,50.96
2023-09-01T19:41:59.695Z,50.86
2023-09-01T19:47:21.731Z,50.72
2023-09-01T19:52:43.686Z,51.17
2023-09-01T19:58:05.736Z,50.90
2023-09-01T20:03:31.250Z,50.84
2023-09-01T20:08:54.232Z,50.72
2023-09-01T20:14:17.641Z,50.65
2023-09-01T20:19:44.269Z,51.22
2023-09-01T20:25:06.282Z,50.71
2023-09-01T20:30:28.477Z,50.99
2023-09-01T20:35:50.494Z,51.16
2023-09-01T20:41:12.455Z,50.90
2023-09-01T20:46:35.905Z,50.71
2023-09-01T20:51:58.074Z,51.08
2023-09-01T20:57:20.227Z,51.01
2023-09-01T21:02:47.218Z,51.36
2023-09-01T21:08:09.134Z,50.87
2023-09-01T21:13:31.025Z,50.75
2023-09-01T21:18:53.480Z,50.83
2023-09-01T21:24:15.434Z,51.00
2023-09-01T21:29:40.666Z,50.67
2023-09-01T21:35:02.567Z,51.08
2023-09-01T21:40:27.408Z,51.22
2023-09-01T21:45:49.359Z,50.69
2023-09-01T21:51:11.261Z,50.91
2023-09-01T21:56:33.427Z,51.21
2023-09-01T22:01:55.286Z,50.72
2023-09-01T22:07:17.181Z,51.14
2023-09-01T22:12:40.294Z,51.21
2023-09-01T22:18:02.219Z,51.06
2023-09-01T22:23:24.217Z,50.88
2023-09-01T22:28:46.146Z,50.71
2023-09-01T22:34:08.206Z,51.19
2023-09-01T22:39:30.776Z,50.73
2023-09-01T22:44:52.709Z,51.13
2023-09-01T22:50:14.764Z,50.67
2023-09-01T22:55:36.676Z,50.94
2023-09-01T23:00:58.622Z,50.99
2023-09-01T23:06:20.498Z,50.93
2023-09-01T23:11:42.538Z,50.97
2023-09-01T23:17:04.796Z,50.73
2023-09-01T23:22:27.895Z,50.87
2023-09-01T23:27:49.826Z,50.92
2023-09-01T23:33:11.749Z,50.91
2023-09-01T23:38:33.690Z,51.06
2023-09-01T23:43:55.572Z,50.60
2023-09-01T23:49:17.686Z,50.60
2023-09-01T23:54:40.067Z,50.81
